Time;durP1;ratioP1;P1;durP2;ratioP2;P2;SDS_P1;SDS_P2;PMS_P1;PMS_P2;Temp;Humidity;BMP_temperature;BMP_pressure;BME280_temperature;BME280_humidity;BME280_pressure;Samples;Min_cycle;Max_cycle;Signal;HPM_P1;HPM_P2
2023/02/11 00:02:05;;;;;;;56.97;33.78;;;4.30;99.90;;;;;;5015518;28;20053;-72
2023/02/11 00:04:31;;;;;;;56.92;28.70;;;4.30;99.90;;;;;;5023345;28;20114;-72
2023/02/11 00:06:57;;;;;;;55.67;27.92;;;4.40;99.90;;;;;;5023926;28;20395;-72
2023/02/11 00:09:22;;;;;;;54.00;29.88;;;4.40;99.90;;;;;;5023004;28;20095;-72
2023/02/11 00:11:48;;;;;;;57.10;29.83;;;4.50;99.90;;;;;;5045297;28;20466;-72
2023/02/11 00:14:14;;;;;;;57.25;31.48;;;4.50;99.90;;;;;;5012349;28;20161;-72
2023/02/11 00:16:40;;;;;;;53.65;28.48;;;4.60;99.90;;;;;;5027120;28;20050;-73
2023/02/11 00:19:05;;;;;;;57.83;30.73;;;4.70;99.90;;;;;;4983113;28;20045;-72
2023/02/11 00:21:31;;;;;;;59.30;30.48;;;4.80;99.90;;;;;;4993494;28;20057;-72
2023/02/11 00:23:58;;;;;;;62.03;32.25;;;4.80;99.90;;;;;;5017485;28;20058;-72
2023/02/11 00:26:26;;;;;;;57.70;29.63;;;4.90;99.90;;;;;;5017082;28;20129;-73
2023/02/11 00:28:52;;;;;;;61.92;33.47;;;5.00;99.90;;;;;;5007089;28;20126;-73
2023/02/11 00:31:18;;;;;;;64.68;32.08;;;5.10;99.90;;;;;;5041644;28;20156;-72
2023/02/11 00:33:44;;;;;;;66.30;33.53;;;5.20;99.90;;;;;;5007004;28;20448;-72
2023/02/11 00:36:18;;;;;;;63.67;33.05;;;5.20;99.90;;;;;;5024570;28;20037;-72
2023/02/11 00:38:45;;;;;;;66.65;35.78;;;5.30;99.90;;;;;;5022431;28;20099;-72
2023/02/11 00:41:12;;;;;;;62.97;33.67;;;5.30;99.90;;;;;;5012708;28;20077;-72
2023/02/11 00:43:39;;;;;;;68.13;33.83;;;5.40;99.90;;;;;;5020091;28;20037;-72
2023/02/11 00:46:05;;;;;;;71.25;35.47;;;5.40;99.90;;;;;;5018097;28;20765;-73
2023/02/11 00:48:31;;;;;;;66.32;37.05;;;5.40;99.90;;;;;;5006921;28;20459;-73
2023/02/11 00:50:57;;;;;;;68.88;36.42;;;5.40;99.90;;;;;;5006264;28;20103;-72
2023/02/11 00:53:22;;;;;;;66.82;34.75;;;5.50;99.90;;;;;;5016414;28;20053;-72
2023/02/11 00:55:48;;;;;;;65.70;35.30;;;5.50;99.90;;;;;;5026357;28;20041;-72
2023/02/11 00:58:14;;;;;;;68.22;36.97;;;5.60;99.90;;;;;;5018157;28;20060;-73
2023/02/11 01:00:39;;;;;;;73.57;37.30;;;5.60;99.90;;;;;;5014106;28;20056;-72
2023/02/11 01:03:05;;;;;;;70.47;36.03;;;5.60;99.90;;;;;;5002152;28;20046;-73
2023/02/11 01:05:31;;;;;;;70.75;37.75;;;5.60;99.90;;;;;;5010488;28;20151;-73
2023/02/11 01:07:57;;;;;;;74.82;38.08;;;5.70;99.90;;;;;;5013931;28;20312;-73
2023/02/11 01:10:22;;;;;;;68.88;35.63;;;5.70;99.90;;;;;;5021758;28;20038;-72
2023/02/11 01:12:48;;;;;;;73.97;38.55;;;5.70;99.90;;;;;;5022707;28;20056;-72
2023/02/11 01:15:14;;;;;;;73.85;37.63;;;5.80;99.90;;;;;;5010208;28;20140;-73
2023/02/11 01:17:40;;;;;;;68.82;38.70;;;5.80;99.90;;;;;;5014633;28;20145;-73
2023/02/11 01:20:07;;;;;;;76.05;39.38;;;5.80;99.90;;;;;;5028802;28;20128;-73
2023/02/11 01:22:36;;;;;;;75.45;38.40;;;5.80;99.90;;;;;;5028203;28;20041;-72
2023/02/11 01:25:02;;;;;;;76.00;40.85;;;5.80;99.90;;;;;;5021921;28;20050;-73
2023/02/11 01:27:28;;;;;;;73.25;38.75;;;5.80;99.90;;;;;;4999316;28;20459;-71
2023/02/11 01:29:53;;;;;;;76.95;38.60;;;5.80;99.90;;;;;;5015824;28;20113;-72
2023/02/11 01:32:19;;;;;;;72.68;36.92;;;5.80;99.90;;;;;;5043794;28;20041;-72
2023/02/11 01:34:45;;;;;;;78.28;39.95;;;5.80;99.90;;;;;;5012510;28;20045;-73
2023/02/11 01:37:10;;;;;;;75.45;38.58;;;5.80;99.90;;;;;;5000080;28;20401;-73
2023/02/11 01:39:36;;;;;;;80.03;41.17;;;5.90;99.90;;;;;;5005765;28;20100;-72
2023/02/11 01:42:02;;;;;;;79.65;40.83;;;5.80;99.90;;;;;;5004311;28;20056;-72
2023/02/11 01:44:35;;;;;;;74.20;39.28;;;5.90;99.90;;;;;;5022162;28;20294;-73
2023/02/11 01:47:03;;;;;;;77.05;39.72;;;5.80;99.90;;;;;;5055539;28;20042;-73
2023/02/11 01:49:37;;;;;;;74.78;38.08;;;5.90;99.90;;;;;;5015382;28;20048;-73
2023/02/11 01:52:08;;;;;;;79.68;41.28;;;5.80;99.90;;;;;;5021539;28;20049;-74
2023/02/11 01:57:26;;;;;;;78.03;39.28;;;5.90;99.90;;;;;;5024293;28;20053;-73
2023/02/11 01:59:57;;;;;;;71.82;39.03;;;5.80;99.90;;;;;;5011563;28;20068;-72
2023/02/11 02:02:45;;;;;;;76.65;40.35;;;5.80;99.90;;;;;;5044970;28;20640;-73
2023/02/11 02:05:19;;;;;;;73.57;39.25;;;5.80;99.90;;;;;;5017551;28;20119;-73
2023/02/11 02:07:57;;;;;;;75.65;38.97;;;5.80;99.90;;;;;;5028784;28;20128;-72
2023/02/11 02:10:24;;;;;;;79.90;42.75;;;5.80;99.90;;;;;;5035468;28;20121;-72
2023/02/11 02:12:50;;;;;;;75.15;40.50;;;5.80;99.90;;;;;;4982835;28;20387;-72
2023/02/11 02:15:22;;;;;;;73.63;39.92;;;5.80;99.90;;;;;;5015631;28;20049;-73
2023/02/11 02:18:12;;;;;;;84.65;40.92;;;5.80;99.90;;;;;;5015261;28;21629;-72
2023/02/11 02:20:43;;;;;;;77.57;41.50;;;5.80;99.90;;;;;;5007790;28;20046;-72
2023/02/11 02:23:41;;;;;;;83.05;39.63;;;5.80;99.90;;;;;;5031406;28;20116;-73
2023/02/11 02:26:30;;;;;;;73.88;40.10;;;5.70;99.90;;;;;;5018361;28;20037;-73
2023/02/11 02:29:07;;;;;;;75.90;40.55;;;5.70;99.90;;;;;;4988342;28;20107;-72
2023/02/11 02:32:05;;;;;;;78.65;41.10;;;5.70;99.90;;;;;;5037160;28;20112;-72
2023/02/11 02:34:30;;;;;;;76.27;38.13;;;5.70;99.90;;;;;;5030760;28;20049;-73
2023/02/11 02:37:03;;;;;;;79.57;42.40;;;5.80;99.90;;;;;;5016037;28;20045;-72
2023/02/11 02:39:32;;;;;;;83.35;44.10;;;5.70;99.90;;;;;;5026584;28;20045;-74
2023/02/11 02:41:58;;;;;;;;;;;5.80;99.90;;;;;;5006541;28;20075;-73
2023/02/11 02:44:23;;;;;;;81.60;41.15;;;5.70;99.90;;;;;;5028302;28;20393;-73
2023/02/11 02:46:49;;;;;;;86.63;40.00;;;5.70;99.90;;;;;;5015556;28;20038;-75
2023/02/11 02:49:15;;;;;;;81.03;42.05;;;5.70;99.90;;;;;;5014205;28;20048;-75
2023/02/11 02:51:51;;;;;;;83.15;43.70;;;5.70;99.90;;;;;;5030214;28;20050;-77
2023/02/11 02:54:41;;;;;;;80.35;43.40;;;5.80;99.90;;;;;;5030643;28;20439;-75
2023/02/11 02:57:25;;;;;;;85.72;41.60;;;5.70;99.90;;;;;;5019837;28;20057;-76
2023/02/11 03:00:03;;;;;;;85.13;43.83;;;5.80;99.90;;;;;;5026591;28;20060;-75
2023/02/11 03:02:34;;;;;;;77.47;41.67;;;5.80;99.90;;;;;;5001292;28;20053;-76
2023/02/11 03:05:11;;;;;;;81.88;40.33;;;5.70;99.90;;;;;;5026790;28;20277;-75
2023/02/11 03:07:56;;;;;;;86.40;44.33;;;5.70;99.90;;;;;;4985415;28;20048;-74
2023/02/11 03:10:56;;;;;;;76.47;41.80;;;5.80;99.90;;;;;;5003592;28;20065;-76
2023/02/11 03:13:25;;;;;;;77.82;42.13;;;5.80;99.90;;;;;;4993189;28;20509;-74
2023/02/11 03:15:52;;;;;;;81.60;44.10;;;5.80;99.90;;;;;;5013889;28;20494;-75
2023/02/11 03:18:20;;;;;;;85.03;43.80;;;5.80;99.90;;;;;;5010406;28;20037;-77
2023/02/11 03:20:48;;;;;;;83.57;43.20;;;5.80;99.90;;;;;;5015895;28;20037;-73
2023/02/11 03:23:35;;;;;;;;;;;5.80;99.90;;;;;;5006059;28;20363;-73
2023/02/11 03:26:25;;;;;;;88.70;46.67;;;5.80;99.90;;;;;;5005153;28;19913;-75
2023/02/11 03:28:59;;;;;;;81.22;43.10;;;5.80;99.90;;;;;;5046879;28;20099;-77
2023/02/11 03:31:30;;;;;;;88.78;44.30;;;5.80;99.90;;;;;;5025596;28;20493;-74
2023/02/11 03:34:13;;;;;;;91.10;49.38;;;5.80;99.90;;;;;;5028203;28;20066;-75
2023/02/11 03:37:01;;;;;;;84.32;43.28;;;5.70;99.90;;;;;;5008644;28;20041;-75
2023/02/11 03:39:49;;;;;;;80.63;41.78;;;5.80;99.90;;;;;;5006697;28;20037;-73
2023/02/11 03:42:15;;;;;;;86.93;43.10;;;5.80;99.90;;;;;;4993411;28;20050;-76
2023/02/11 03:44:45;;;;;;;86.55;43.92;;;5.70;99.90;;;;;;5031639;28;20485;-73
2023/02/11 03:47:11;;;;;;;82.88;42.65;;;5.70;99.90;;;;;;5008407;28;20033;-74
2023/02/11 03:49:37;;;;;;;87.25;43.80;;;5.80;99.90;;;;;;5032020;28;20339;-74
2023/02/11 03:52:04;;;;;;;82.05;42.42;;;5.80;99.90;;;;;;4982536;28;20054;-76
2023/02/11 03:54:30;;;;;;;83.75;43.47;;;5.80;99.90;;;;;;5026022;28;20045;-75
2023/02/11 03:56:58;;;;;;;86.28;44.50;;;5.80;99.90;;;;;;5020958;28;20111;-75
2023/02/11 03:59:24;;;;;;;87.55;44.75;;;5.80;99.90;;;;;;5031087;28;20049;-75
2023/02/11 04:01:50;;;;;;;79.68;43.63;;;5.80;99.90;;;;;;5012415;28;20062;-74
2023/02/11 04:04:15;;;;;;;86.15;45.38;;;5.80;99.90;;;;;;5027919;28;20125;-75
2023/02/11 04:06:42;;;;;;;82.72;43.88;;;5.80;99.90;;;;;;5022703;28;20068;-74
2023/02/11 04:09:08;;;;;;;85.32;45.88;;;5.80;99.90;;;;;;5014797;28;20053;-76
2023/02/11 04:11:34;;;;;;;83.32;43.45;;;5.80;99.90;;;;;;5007063;28;20041;-76
2023/02/11 04:14:00;;;;;;;84.43;45.05;;;5.80;99.90;;;;;;5009068;28;20113;-76
2023/02/11 04:16:25;;;;;;;90.07;45.55;;;5.70;99.90;;;;;;5036175;28;20505;-74
2023/02/11 04:18:51;;;;;;;90.07;45.70;;;5.70;99.90;;;;;;5028438;28;20838;-74
2023/02/11 04:21:17;;;;;;;86.63;42.72;;;5.70;99.90;;;;;;4998097;28;20446;-75
2023/02/11 04:23:43;;;;;;;83.25;44.67;;;5.80;99.90;;;;;;5026636;28;20049;-74
2023/02/11 04:26:09;;;;;;;90.68;47.17;;;5.70;99.90;;;;;;5032514;28;20037;-75
2023/02/11 04:28:35;;;;;;;89.22;43.47;;;5.70;99.90;;;;;;5025323;28;20122;-74
2023/02/11 04:31:00;;;;;;;86.60;45.47;;;5.70;99.90;;;;;;5012278;28;20044;-74
2023/02/11 04:33:26;;;;;;;92.40;47.28;;;5.70;99.90;;;;;;5005150;28;20053;-76
2023/02/11 04:35:52;;;;;;;82.53;44.17;;;5.70;99.90;;;;;;5021054;28;20123;-75
2023/02/11 04:38:17;;;;;;;83.03;43.60;;;5.70;99.90;;;;;;5033075;28;20038;-75
2023/02/11 04:40:43;;;;;;;90.22;43.25;;;5.70;99.90;;;;;;5044025;28;20037;-75
2023/02/11 04:43:09;;;;;;;95.68;48.05;;;5.70;99.90;;;;;;5024686;28;20117;-75
2023/02/11 04:45:35;;;;;;;83.65;43.85;;;5.60;99.90;;;;;;5010702;28;20045;-75
2023/02/11 04:48:02;;;;;;;90.13;44.72;;;5.70;99.90;;;;;;5017591;28;20045;-75
2023/02/11 04:50:28;;;;;;;91.07;46.60;;;5.70;99.90;;;;;;5015943;28;20078;-75
2023/02/11 04:52:53;;;;;;;95.57;48.72;;;5.70;99.90;;;;;;5038186;28;20065;-76
2023/02/11 04:55:19;;;;;;;87.70;46.63;;;5.70;99.90;;;;;;5026788;28;20101;-77
2023/02/11 04:57:45;;;;;;;100.93;47.97;;;5.70;99.90;;;;;;5028451;28;20462;-76
2023/02/11 05:00:11;;;;;;;89.15;45.70;;;5.60;99.90;;;;;;5023519;28;20041;-75
2023/02/11 05:02:37;;;;;;;96.90;48.97;;;5.60;99.90;;;;;;5026721;28;20103;-77
2023/02/11 05:05:04;;;;;;;94.22;48.08;;;5.60;99.90;;;;;;5028275;28;20397;-75
2023/02/11 05:07:30;;;;;;;96.95;49.92;;;5.50;99.90;;;;;;5025829;28;20106;-76
2023/02/11 05:09:57;;;;;;;100.63;51.22;;;5.50;99.90;;;;;;5011282;28;20038;-74
2023/02/11 05:12:22;;;;;;;88.68;46.17;;;5.60;99.90;;;;;;5023886;28;20103;-75
2023/02/11 05:14:48;;;;;;;103.68;51.00;;;5.50;99.90;;;;;;4995532;28;20061;-74
2023/02/11 05:17:14;;;;;;;95.20;48.75;;;5.50;99.90;;;;;;5005285;28;20045;-74
2023/02/11 05:19:41;;;;;;;95.20;46.85;;;5.50;99.90;;;;;;5009977;28;20049;-74
2023/02/11 05:22:06;;;;;;;94.38;49.05;;;5.50;99.90;;;;;;5036284;28;20181;-74
2023/02/11 05:24:32;;;;;;;98.88;48.10;;;5.50;99.90;;;;;;5015950;28;20112;-75
2023/02/11 05:26:58;;;;;;;88.88;46.55;;;5.50;99.90;;;;;;5010118;28;20045;-74
2023/02/11 05:29:24;;;;;;;85.40;45.25;;;5.50;99.90;;;;;;5021754;28;20073;-75
2023/02/11 05:31:49;;;;;;;95.40;47.30;;;5.60;99.90;;;;;;5027273;28;20769;-75
2023/02/11 05:34:15;;;;;;;84.75;45.78;;;5.50;99.90;;;;;;5010523;28;20052;-76
2023/02/11 05:36:42;;;;;;;90.63;45.38;;;5.60;99.90;;;;;;5018599;28;20050;-74
2023/02/11 05:39:08;;;;;;;89.55;45.67;;;5.50;99.90;;;;;;5025960;28;20057;-75
2023/02/11 05:41:33;;;;;;;89.55;47.50;;;5.60;99.90;;;;;;4993578;28;20045;-76
2023/02/11 05:43:59;;;;;;;84.13;46.60;;;5.50;99.90;;;;;;4990646;28;20760;-75
2023/02/11 05:46:25;;;;;;;85.07;43.15;;;5.60;99.90;;;;;;5016516;28;20080;-75
2023/02/11 05:48:51;;;;;;;83.85;44.95;;;5.60;99.90;;;;;;5018952;28;20116;-74
2023/02/11 05:51:16;;;;;;;88.32;43.35;;;5.60;99.90;;;;;;5032790;28;20045;-75
2023/02/11 05:53:42;;;;;;;88.38;43.97;;;5.60;99.90;;;;;;5013926;28;20061;-75
2023/02/11 05:56:09;;;;;;;80.85;45.00;;;5.60;99.90;;;;;;4998748;28;20045;-74
2023/02/11 05:58:35;;;;;;;80.80;41.90;;;5.60;99.90;;;;;;5030252;28;20049;-75
2023/02/11 06:01:00;;;;;;;85.40;45.47;;;5.60;99.90;;;;;;5021505;28;20548;-75
2023/02/11 06:03:26;;;;;;;76.43;41.35;;;5.70;99.90;;;;;;5050005;28;20107;-76
2023/02/11 06:05:52;;;;;;;78.85;41.70;;;5.70;99.90;;;;;;5025678;28;20059;-75
2023/02/11 06:08:17;;;;;;;73.15;40.75;;;5.60;99.90;;;;;;5014454;28;20410;-76
2023/02/11 06:10:44;;;;;;;69.70;39.30;;;5.60;99.90;;;;;;5020111;28;20403;-74
2023/02/11 06:13:10;;;;;;;76.22;42.58;;;5.70;99.90;;;;;;5014097;28;20061;-75
2023/02/11 06:15:36;;;;;;;65.97;38.38;;;5.70;99.90;;;;;;5005511;28;20374;-76
2023/02/11 06:18:01;;;;;;;74.75;37.17;;;5.70;99.90;;;;;;5011857;28;20505;-73
2023/02/11 06:20:27;;;;;;;67.50;37.47;;;5.70;99.90;;;;;;5015590;28;20160;-73
2023/02/11 06:22:53;;;;;;;63.33;36.72;;;5.70;99.90;;;;;;5022756;28;20045;-73
2023/02/11 06:25:18;;;;;;;59.42;34.90;;;5.70;99.90;;;;;;5008557;28;20064;-73
2023/02/11 06:27:44;;;;;;;64.28;36.67;;;5.70;99.90;;;;;;5030454;28;20053;-73
2023/02/11 06:30:10;;;;;;;63.58;37.40;;;5.70;99.90;;;;;;5027043;28;20046;-72
2023/02/11 06:32:36;;;;;;;57.17;33.72;;;5.70;99.90;;;;;;5003513;28;20057;-72
2023/02/11 06:35:02;;;;;;;61.60;35.40;;;5.80;99.90;;;;;;4992164;28;20196;-72
2023/02/11 06:37:28;;;;;;;64.63;35.47;;;5.80;99.90;;;;;;5022842;28;20045;-72
2023/02/11 06:39:54;;;;;;;58.65;34.25;;;5.80;99.90;;;;;;5026182;28;20045;-73
2023/02/11 06:42:19;;;;;;;60.63;33.90;;;5.80;99.90;;;;;;5016671;28;20053;-72
2023/02/11 06:44:45;;;;;;;60.10;33.47;;;5.80;99.90;;;;;;4998796;28;20045;-72
2023/02/11 06:47:11;;;;;;;57.17;33.22;;;5.80;99.90;;;;;;4996792;28;20046;-72
2023/02/11 06:49:36;;;;;;;61.92;35.05;;;5.80;99.90;;;;;;5005232;28;20344;-73
2023/02/11 06:52:02;;;;;;;55.05;33.58;;;5.90;99.90;;;;;;5026410;28;20120;-72
2023/02/11 06:54:29;;;;;;;58.40;34.03;;;5.80;99.90;;;;;;5031584;28;20076;-73
2023/02/11 06:56:55;;;;;;;56.63;34.42;;;5.90;99.90;;;;;;5029251;28;20060;-71
2023/02/11 06:59:21;;;;;;;57.90;34.78;;;5.90;99.90;;;;;;5009625;28;20049;-72
2023/02/11 07:01:47;;;;;;;63.30;33.67;;;5.90;99.90;;;;;;4997509;28;20367;-73
2023/02/11 07:04:13;;;;;;;57.75;34.38;;;5.90;99.90;;;;;;5026491;28;20049;-72
2023/02/11 07:06:39;;;;;;;58.03;33.33;;;5.90;99.90;;;;;;5025361;28;20626;-72
2023/02/11 07:09:05;;;;;;;62.85;35.50;;;5.90;99.90;;;;;;4981126;28;20129;-72
2023/02/11 07:11:31;;;;;;;58.13;35.63;;;6.00;99.90;;;;;;5032247;28;20052;-72
2023/02/11 07:14:02;;;;;;;60.92;34.28;;;5.90;99.90;;;;;;5025945;28;20061;-73
2023/02/11 07:16:28;;;;;;;64.95;35.63;;;6.00;99.90;;;;;;5008944;28;20049;-72
2023/02/11 07:18:57;;;;;;;64.40;36.22;;;6.00;99.90;;;;;;5003524;28;20053;-73
2023/02/11 07:21:23;;;;;;;55.80;34.42;;;6.00;99.90;;;;;;5013186;28;20041;-72
2023/02/11 07:23:49;;;;;;;59.80;36.28;;;6.00;99.90;;;;;;5018697;28;20049;-73
2023/02/11 07:26:16;;;;;;;61.38;34.60;;;6.00;99.90;;;;;;5031756;28;20046;-73
2023/02/11 07:28:42;;;;;;;62.17;35.97;;;6.00;99.90;;;;;;5017786;28;20721;-72
2023/02/11 07:31:09;;;;;;;70.20;39.22;;;6.00;99.90;;;;;;5019244;28;20359;-72
2023/02/11 07:33:35;;;;;;;62.22;35.47;;;6.10;99.90;;;;;;5021128;28;20473;-73
2023/02/11 07:36:02;;;;;;;64.68;36.22;;;6.00;99.90;;;;;;5015810;28;20128;-72
2023/02/11 07:38:27;;;;;;;67.10;38.25;;;6.10;99.90;;;;;;4987196;28;20052;-72
2023/02/11 07:40:53;;;;;;;66.22;36.42;;;6.10;99.90;;;;;;5027404;28;20042;-73
2023/02/11 07:43:19;;;;;;;64.70;36.92;;;6.10;99.90;;;;;;5034130;28;20128;-73
2023/02/11 07:45:44;;;;;;;67.55;35.58;;;6.10;99.90;;;;;;5015656;28;20053;-77
2023/02/11 07:48:10;;;;;;;58.70;35.28;;;6.10;99.90;;;;;;5036431;28;20041;-76
2023/02/11 07:50:36;;;;;;;67.10;35.50;;;6.10;99.90;;;;;;5033104;28;20064;-76
2023/02/11 07:53:02;;;;;;;65.40;37.13;;;6.10;99.90;;;;;;5020945;28;20052;-76
2023/02/11 07:55:27;;;;;;;69.95;38.72;;;6.10;99.90;;;;;;5034371;28;20045;-75
2023/02/11 07:57:53;;;;;;;67.05;35.60;;;6.10;99.90;;;;;;5017420;28;20494;-76
2023/02/11 08:00:19;;;;;;;69.65;36.22;;;6.20;99.90;;;;;;5015058;28;20041;-74
2023/02/11 08:02:45;;;;;;;74.88;39.80;;;6.20;99.90;;;;;;5023648;28;20154;-73
2023/02/11 08:05:10;;;;;;;65.20;36.63;;;6.20;99.90;;;;;;5042874;28;20095;-74
2023/02/11 08:07:36;;;;;;;63.38;34.65;;;6.20;99.90;;;;;;5005227;28;20069;-76
2023/02/11 08:10:02;;;;;;;77.40;39.15;;;6.20;99.90;;;;;;4994445;28;20057;-75
2023/02/11 08:12:28;;;;;;;65.05;36.75;;;6.20;99.90;;;;;;5004927;28;20041;-75
2023/02/11 08:14:55;;;;;;;73.95;36.72;;;6.20;99.90;;;;;;5029615;28;20064;-76
2023/02/11 08:17:20;;;;;;;70.40;38.70;;;6.30;99.90;;;;;;5016161;28;20056;-73
2023/02/11 08:19:46;;;;;;;72.47;36.45;;;6.20;99.90;;;;;;5027270;28;20045;-73
2023/02/11 08:22:12;;;;;;;69.85;41.65;;;6.20;99.90;;;;;;5029134;28;20056;-73
2023/02/11 08:24:38;;;;;;;66.40;37.63;;;6.30;99.90;;;;;;4994146;28;20526;-73
2023/02/11 08:27:03;;;;;;;75.47;38.50;;;6.20;99.90;;;;;;5004002;28;20096;-74
2023/02/11 08:29:29;;;;;;;66.32;37.78;;;6.30;99.90;;;;;;5029494;28;20336;-73
2023/02/11 08:31:55;;;;;;;71.30;38.45;;;6.30;99.90;;;;;;5015015;28;20056;-73
2023/02/11 08:34:21;;;;;;;78.57;39.17;;;6.30;99.90;;;;;;5014975;28;20048;-73
2023/02/11 08:36:47;;;;;;;76.18;39.25;;;6.30;99.90;;;;;;5024584;28;20500;-73
2023/02/11 08:39:18;;;;;;;76.53;40.75;;;6.30;99.90;;;;;;5040798;28;20045;-73
2023/02/11 08:41:44;;;;;;;78.53;39.25;;;6.30;99.90;;;;;;5013585;28;20124;-73
2023/02/11 08:44:10;;;;;;;71.43;39.67;;;6.30;99.90;;;;;;5007399;28;20419;-74
2023/02/11 08:46:35;;;;;;;77.10;39.38;;;6.30;99.90;;;;;;5014986;28;20124;-73
2023/02/11 08:49:01;;;;;;;73.13;40.28;;;6.30;99.90;;;;;;5011125;28;20129;-74
2023/02/11 08:51:29;;;;;;;74.07;39.08;;;6.30;99.90;;;;;;5008226;28;20120;-72
2023/02/11 08:53:55;;;;;;;71.47;37.88;;;6.30;99.90;;;;;;5006337;28;20045;-73
2023/02/11 08:56:22;;;;;;;75.72;41.40;;;6.30;99.90;;;;;;5021551;28;20053;-74
2023/02/11 08:58:49;;;;;;;77.87;43.07;;;6.30;99.90;;;;;;5028312;28;20057;-73
2023/02/11 09:01:32;;;;;;;83.75;44.65;;;6.30;99.90;;;;;;5029742;28;20583;-73
2023/02/11 09:03:59;;;;;;;79.47;41.28;;;6.40;99.90;;;;;;4991890;28;20056;-72
2023/02/11 09:06:25;;;;;;;83.22;42.40;;;6.40;99.90;;;;;;5030138;28;20385;-73
2023/02/11 09:08:53;;;;;;;68.45;39.53;;;6.40;99.90;;;;;;4989960;28;20064;-73
2023/02/11 09:11:21;;;;;;;73.38;39.50;;;6.40;99.90;;;;;;5014057;28;20139;-74
2023/02/11 09:13:46;;;;;;;69.68;38.70;;;6.40;99.90;;;;;;5017514;28;20061;-74
2023/02/11 09:16:23;;;;;;;70.80;38.72;;;6.40;99.90;;;;;;5014043;28;20076;-72
2023/02/11 09:18:49;;;;;;;75.20;38.88;;;6.40;99.90;;;;;;5043738;28;20052;-72
2023/02/11 09:21:15;;;;;;;77.72;39.33;;;6.50;99.90;;;;;;5008906;28;20051;-71
2023/02/11 09:23:42;;;;;;;75.22;39.42;;;6.40;99.90;;;;;;4995380;28;20468;-72
2023/02/11 09:26:19;;;;;;;73.57;41.40;;;6.50;99.90;;;;;;5043305;28;20533;-73
2023/02/11 09:28:45;;;;;;;79.50;40.17;;;6.50;99.90;;;;;;5012359;28;20046;-73
2023/02/11 09:31:13;;;;;;;73.10;40.97;;;6.50;99.90;;;;;;5025750;28;20068;-73
2023/02/11 09:33:41;;;;;;;79.60;41.15;;;6.50;99.90;;;;;;4991888;28;20351;-72
2023/02/11 09:36:07;;;;;;;78.33;42.27;;;6.50;99.90;;;;;;5017326;28;20368;-73
2023/02/11 09:38:33;;;;;;;67.32;39.35;;;6.50;99.90;;;;;;5017569;28;20128;-72
2023/02/11 09:41:01;;;;;;;75.57;38.80;;;6.50;99.90;;;;;;5041994;28;20426;-73
2023/02/11 09:43:32;;;;;;;;;;;6.50;99.90;;;;;;5001717;28;20056;-71
2023/02/11 09:45:58;;;;;;;72.70;38.35;;;6.50;99.90;;;;;;5038372;28;20344;-71
2023/02/11 09:48:24;;;;;;;78.18;40.80;;;6.50;99.90;;;;;;5023544;28;20042;-72
2023/02/11 09:50:52;;;;;;;73.97;39.33;;;6.50;99.90;;;;;;5022367;28;20046;-73
2023/02/11 09:53:31;;;;;;;90.63;49.10;;;6.50;99.90;;;;;;5017161;28;20045;-72
2023/02/11 09:56:04;;;;;;;84.47;42.10;;;6.50;99.90;;;;;;5010016;28;20042;-72
2023/02/11 09:58:34;;;;;;;79.43;42.22;;;6.50;99.90;;;;;;5007361;28;20076;-72
2023/02/11 10:01:15;;;;;;;78.82;41.15;;;6.50;99.90;;;;;;4986072;28;20438;-72
2023/02/11 10:04:13;;;;;;;78.63;42.08;;;6.50;99.90;;;;;;5046013;28;20068;-72
2023/02/11 10:06:58;;;;;;;;;;;6.50;99.90;;;;;;5010353;28;20052;-73
2023/02/11 10:09:49;;;;;;;85.05;42.38;;;6.40;99.90;;;;;;4999476;28;19920;-73
2023/02/11 10:12:34;;;;;;;84.00;42.78;;;6.50;99.90;;;;;;5047013;28;20089;-73
2023/02/11 10:15:03;;;;;;;81.75;43.47;;;6.50;99.90;;;;;;5012458;28;20136;-73
2023/02/11 10:17:40;;;;;;;89.45;45.90;;;6.50;99.90;;;;;;4983135;28;20540;-74
2023/02/11 10:20:21;;;;;;;87.57;44.63;;;6.40;99.90;;;;;;5016083;28;20092;-74
2023/02/11 10:22:55;;;;;;;86.80;42.30;;;6.40;99.90;;;;;;5021472;28;20307;-74
2023/02/11 10:25:25;;;;;;;98.30;48.67;;;6.40;99.90;;;;;;5030680;28;20472;-74
2023/02/11 10:27:53;;;;;;;82.85;43.72;;;6.40;99.90;;;;;;5001722;28;20507;-74
2023/02/11 10:30:28;;;;;;;87.38;43.03;;;6.40;99.90;;;;;;5027572;28;20132;-74
2023/02/11 10:33:02;;;;;;;93.35;46.83;;;6.40;99.90;;;;;;5008185;28;20050;-74
2023/02/11 10:35:28;;;;;;;90.78;44.50;;;6.40;99.90;;;;;;5015481;28;20052;-73
2023/02/11 10:37:54;;;;;;;85.93;44.97;;;6.40;99.90;;;;;;5026725;28;20046;-73
2023/02/11 10:40:26;;;;;;;89.93;45.92;;;6.50;99.90;;;;;;5013523;28;20042;-72
2023/02/11 10:42:53;;;;;;;84.95;43.38;;;6.40;99.90;;;;;;5029450;28;20138;-73
2023/02/11 10:45:33;;;;;;;90.22;46.38;;;6.40;99.90;;;;;;5026886;28;20486;-74
2023/02/11 10:48:00;;;;;;;87.45;44.33;;;6.50;99.90;;;;;;5048364;28;20092;-73
2023/02/11 10:50:27;;;;;;;84.85;44.80;;;6.50;99.90;;;;;;5033489;28;20053;-73
2023/02/11 10:53:25;;;;;;;82.30;43.13;;;6.50;99.90;;;;;;5013568;28;20050;-73
2023/02/11 10:55:56;;;;;;;89.68;43.30;;;6.50;99.90;;;;;;5025851;28;20049;-74
2023/02/11 10:58:46;;;;;;;92.35;43.67;;;6.50;99.90;;;;;;5019311;28;20089;-73
2023/02/11 11:01:11;;;;;;;87.53;42.40;;;6.50;99.90;;;;;;5015463;28;20121;-73
2023/02/11 11:03:48;;;;;;;89.38;44.60;;;6.60;99.90;;;;;;5023349;28;20045;-73
2023/02/11 11:06:14;;;;;;;80.28;40.95;;;6.60;99.90;;;;;;4988639;28;20104;-72
2023/02/11 11:08:47;;;;;;;80.20;40.15;;;6.90;99.90;;;;;;5008686;28;20041;-72
2023/02/11 11:11:16;;;;;;;81.75;41.40;;;6.80;99.90;;;;;;5007413;28;21305;-74
2023/02/11 11:13:51;;;;;;;80.18;40.13;;;6.70;99.90;;;;;;5024616;28;20059;-75
2023/02/11 11:16:22;;;;;;;73.03;39.13;;;6.70;99.90;;;;;;5060495;28;20053;-74
2023/02/11 11:18:53;;;;;;;76.90;40.13;;;6.70;99.90;;;;;;5045834;28;20095;-73
2023/02/11 11:21:28;;;;;;;76.75;39.53;;;6.70;99.90;;;;;;5011900;28;20466;-74
2023/02/11 11:23:58;;;;;;;73.75;38.58;;;6.70;99.90;;;;;;5031199;28;20124;-73
2023/02/11 11:26:26;;;;;;;74.43;39.53;;;6.80;99.90;;;;;;5025659;28;20052;-74
2023/02/11 11:28:55;;;;;;;70.95;37.13;;;6.80;99.90;;;;;;4998458;28;20489;-75
2023/02/11 11:31:22;;;;;;;;;;;6.80;99.90;;;;;;5008248;28;20041;-74
2023/02/11 11:33:48;;;;;;;74.88;37.35;;;6.80;99.90;;;;;;5040319;28;20389;-73
2023/02/11 11:36:21;;;;;;;70.30;35.15;;;6.80;99.90;;;;;;5021480;28;20111;-73
2023/02/11 11:39:18;;;;;;;71.78;37.05;;;6.90;99.90;;;;;;4979482;28;20049;-73
2023/02/11 11:42:00;;;;;;;64.88;36.10;;;6.90;99.90;;;;;;5014633;28;20042;-75
2023/02/11 11:44:31;;;;;;;69.70;35.03;;;6.90;99.90;;;;;;5021617;28;20069;-74
2023/02/11 11:47:15;;;;;;;66.82;34.65;;;7.00;99.90;;;;;;5014975;28;20390;-73
2023/02/11 11:49:59;;;;;;;65.97;34.72;;;7.00;99.90;;;;;;5030769;28;20041;-73
2023/02/11 11:52:36;;;;;;;64.03;34.22;;;7.00;99.90;;;;;;5052821;28;20050;-73
2023/02/11 11:55:11;;;;;;;66.18;32.75;;;7.00;99.90;;;;;;5020020;28;20051;-74
2023/02/11 11:57:37;;;;;;;62.55;33.28;;;7.00;99.90;;;;;;5013998;28;20072;-74
2023/02/11 12:00:04;;;;;;;62.63;32.90;;;7.00;99.90;;;;;;5033665;28;20054;-74
2023/02/11 12:02:51;;;;;;;65.33;33.40;;;7.00;99.90;;;;;;5040697;28;20050;-74
2023/02/11 12:05:41;;;;;;;64.15;31.40;;;7.00;99.90;;;;;;5023763;28;20041;-74
2023/02/11 12:08:16;;;;;;;61.70;32.92;;;7.10;99.90;;;;;;5024094;28;20045;-74
2023/02/11 12:10:57;;;;;;;57.88;31.02;;;7.10;99.90;;;;;;5047161;28;20116;-74
2023/02/11 12:13:58;;;;;;;54.33;29.40;;;7.10;99.90;;;;;;4983913;28;1167825;-74
2023/02/11 12:16:48;;;;;;;57.00;30.20;;;7.10;99.90;;;;;;5008656;28;20678;-73
2023/02/11 12:19:31;;;;;;;56.53;29.40;;;7.10;99.90;;;;;;5037764;28;20045;-73
2023/02/11 12:22:07;;;;;;;54.15;29.73;;;7.10;99.90;;;;;;5040096;28;20042;-73
2023/02/11 12:24:55;;;;;;;60.55;31.52;;;7.20;99.90;;;;;;5039094;28;20045;-73
2023/02/11 12:27:41;;;;;;;58.75;30.50;;;7.20;99.90;;;;;;5018238;28;20445;-73
2023/02/11 12:30:19;;;;;;;58.90;30.02;;;7.20;99.90;;;;;;5007590;28;20042;-74
2023/02/11 12:33:24;;;;;;;52.90;29.25;;;7.20;99.90;;;;;;5051950;28;20052;-74
2023/02/11 12:36:05;;;;;;;50.10;29.40;;;7.20;99.90;;;;;;5049281;28;20462;-73
2023/02/11 12:38:53;;;;;;;55.17;28.52;;;7.20;99.90;;;;;;5023858;28;20057;-73
2023/02/11 12:45:11;;;;;;;51.35;28.80;;;7.30;99.90;;;;;;5015815;28;20073;-73
2023/02/11 12:47:52;;;;;;;56.80;29.67;;;7.30;99.90;;;;;;5045384;28;20053;-73
2023/02/11 12:50:21;;;;;;;57.20;29.60;;;7.30;99.90;;;;;;5023905;28;20497;-74
2023/02/11 12:53:12;;;;;;;54.80;28.42;;;7.30;99.90;;;;;;5022805;28;20084;-73
2023/02/11 12:55:41;;;;;;;53.85;28.33;;;7.30;99.90;;;;;;5029929;28;20168;-73
2023/02/11 12:58:11;;;;;;;49.28;28.88;;;7.30;99.90;;;;;;5022720;28;20485;-74
2023/02/11 13:00:55;;;;;;;54.33;28.83;;;7.30;99.90;;;;;;5013520;28;20179;-73